createdAt,value
2023-10-13T00:00:09.743Z,28.60
2023-10-13T00:00:23.773Z,24.27
2023-10-13T00:00:35.993Z,23.33
2023-10-13T00:00:47.924Z,26.85
2023-10-13T00:01:00.119Z,33.35
2023-10-13T00:01:12.004Z,31.38
2023-10-13T00:01:24.382Z,30.45
2023-10-13T00:01:36.578Z,28.92
2023-10-13T00:01:49.631Z,31.08
2023-10-13T00:02:03.288Z,34.47
2023-10-13T00:02:15.590Z,36.97
2023-10-13T00:02:27.575Z,30.58
2023-10-13T00:02:39.580Z,31.42
2023-10-13T00:02:51.371Z,33.30
2023-10-13T00:03:03.503Z,33.65
2023-10-13T00:03:15.424Z,29.23
2023-10-13T00:03:27.195Z,27.77
2023-10-13T00:03:39.618Z,25.25
2023-10-13T00:03:52.135Z,27.65
2023-10-13T00:04:04.413Z,30.90
2023-10-13T00:04:16.600Z,35.15
2023-10-13T00:04:28.621Z,28.88
2023-10-13T00:04:42.889Z,25.48
2023-10-13T00:04:54.909Z,23.13
2023-10-13T00:05:07.302Z,31.98
2023-10-13T00:05:21.879Z,31.27
2023-10-13T00:05:34.559Z,25.63
2023-10-13T00:05:46.347Z,27.50
2023-10-13T00:05:59.172Z,27.63
2023-10-13T00:06:11.174Z,27.60
2023-10-13T00:06:22.940Z,26.23
2023-10-13T00:06:34.951Z,25.73
2023-10-13T00:06:46.662Z,24.88
2023-10-13T00:06:58.824Z,25.87
2023-10-13T00:07:11.371Z,31.15
2023-10-13T00:07:23.254Z,33.65
2023-10-13T00:07:35.088Z,31.38
2023-10-13T00:07:46.930Z,31.25
2023-10-13T00:07:59.812Z,28.23
2023-10-13T00:08:12.870Z,30.58
2023-10-13T00:08:24.597Z,37.67
2023-10-13T00:08:36.321Z,34.97
2023-10-13T00:08:48.429Z,31.80
2023-10-13T00:09:00.295Z,26.02
2023-10-13T00:09:14.262Z,29.58
2023-10-13T00:09:27.147Z,29.38
2023-10-13T00:09:39.005Z,28.05
2023-10-13T00:09:50.812Z,24.63
2023-10-13T00:10:02.731Z,27.00
2023-10-13T00:10:14.542Z,32.40
2023-10-13T00:10:26.447Z,33.65
2023-10-13T00:10:41.002Z,37.00
2023-10-13T00:10:52.928Z,37.60
2023-10-13T00:11:07.263Z,31.38
2023-10-13T00:11:18.972Z,26.23
2023-10-13T00:11:32.346Z,30.88
2023-10-13T00:11:44.225Z,29.35
2023-10-13T00:11:57.550Z,22.52
2023-10-13T00:12:09.850Z,24.92
2023-10-13T00:12:24.667Z,30.95
2023-10-13T00:12:38.845Z,30.25
2023-10-13T00:12:50.822Z,24.33
2023-10-13T00:13:03.431Z,27.02
2023-10-13T00:13:15.311Z,27.80
2023-10-13T00:13:28.553Z,28.02
2023-10-13T00:13:40.487Z,25.25
2023-10-13T00:13:52.268Z,26.98
2023-10-13T00:14:04.525Z,31.45
2023-10-13T00:14:16.537Z,33.67
2023-10-13T00:14:28.715Z,30.70
2023-10-13T00:14:40.553Z,32.25
2023-10-13T00:14:52.299Z,29.95
2023-10-13T00:15:04.564Z,25.15
2023-10-13T00:15:17.226Z,27.17
2023-10-13T00:15:28.975Z,28.98
2023-10-13T00:15:41.229Z,27.88
2023-10-13T00:15:53.286Z,29.92
2023-10-13T00:16:05.637Z,28.02
2023-10-13T00:16:17.995Z,25.70
2023-10-13T00:16:29.894Z,26.00
2023-10-13T00:16:41.902Z,25.02
2023-10-13T00:16:53.807Z,33.42
2023-10-13T00:17:07.252Z,28.13
2023-10-13T00:17:19.104Z,23.63
2023-10-13T00:17:30.982Z,23.55
2023-10-13T00:17:42.806Z,25.33
2023-10-13T00:17:54.752Z,22.42
2023-10-13T00:18:06.946Z,22.85
2023-10-13T00:18:18.680Z,21.02
2023-10-13T00:18:31.571Z,22.95
2023-10-13T00:18:43.353Z,23.95
2023-10-13T00:18:55.194Z,27.77
2023-10-13T00:19:06.989Z,28.98
2023-10-13T00:19:24.586Z,31.80
2023-10-13T00:19:38.072Z,29.33
2023-10-13T00:19:49.858Z,24.60
2023-10-13T00:20:01.698Z,28.00
2023-10-13T00:20:13.447Z,30.83
2023-10-13T00:20:25.184Z,31.33
2023-10-13T00:20:36.910Z,25.92
2023-10-13T00:20:48.635Z,22.90
2023-10-13T00:21:00.427Z,25.48
2023-10-13T00:21:12.660Z,28.05
2023-10-13T00:21:24.873Z,28.75
2023-10-13T00:21:36.788Z,22.52
2023-10-13T00:21:48.811Z,31.33
2023-10-13T00:22:00.628Z,34.83
2023-10-13T00:22:13.708Z,31.98
2023-10-13T00:22:25.582Z,27.10
2023-10-13T00:22:37.437Z,24.75
2023-10-13T00:22:49.430Z,25.20
2023-10-13T00:23:01.145Z,26.45
2023-10-13T00:23:12.952Z,27.90
2023-10-13T00:23:24.864Z,24.88
2023-10-13T00:23:36.580Z,24.60
2023-10-13T00:23:48.317Z,26.33
2023-10-13T00:24:01.655Z,26.00
2023-10-13T00:24:13.412Z,25.27
2023-10-13T00:24:25.173Z,26.42
2023-10-13T00:24:37.573Z,29.67
2023-10-13T00:24:49.488Z,29.13
2023-10-13T00:25:01.298Z,26.50
2023-10-13T00:25:13.166Z,25.48
2023-10-13T00:25:24.957Z,23.80
2023-10-13T00:25:36.753Z,25.77
2023-10-13T00:25:49.668Z,26.95
2023-10-13T00:26:01.411Z,29.42
2023-10-13T00:26:13.110Z,26.75
2023-10-13T00:26:26.531Z,29.52
2023-10-13T00:26:39.395Z,37.40
2023-10-13T00:26:51.333Z,33.63
2023-10-13T00:27:04.459Z,27.90
2023-10-13T00:27:17.807Z,26.38
2023-10-13T00:27:29.595Z,30.13
2023-10-13T00:27:41.401Z,30.65
2023-10-13T00:27:53.247Z,28.27
2023-10-13T00:28:05.784Z,26.00
2023-10-13T00:28:17.640Z,25.35
2023-10-13T00:28:30.060Z,25.77
2023-10-13T00:28:41.892Z,26.10
2023-10-13T00:28:53.710Z,25.33
2023-10-13T00:29:05.506Z,26.23
2023-10-13T00:29:17.228Z,26.02
2023-10-13T00:29:28.981Z,27.50
2023-10-13T00:29:40.763Z,28.52
2023-10-13T00:29:52.671Z,31.58
2023-10-13T00:30:06.477Z,38.40
2023-10-13T00:30:19.071Z,32.38
2023-10-13T00:30:30.997Z,35.05
2023-10-13T00:30:42.771Z,38.92
2023-10-13T00:30:55.813Z,34.75
2023-10-13T00:31:07.677Z,29.33
2023-10-13T00:31:19.564Z,30.30
2023-10-13T00:31:31.400Z,31.85
2023-10-13T00:31:44.892Z,31.15
2023-10-13T00:31:58.042Z,26.77
2023-10-13T00:32:10.380Z,27.88
2023-10-13T00:32:22.940Z,31.63
2023-10-13T00:32:34.699Z,36.42
2023-10-13T00:32:47.639Z,32.45
2023-10-13T00:32:59.800Z,28.45
2023-10-13T00:33:11.627Z,33.58
2023-10-13T00:33:23.485Z,35.50
2023-10-13T00:33:35.291Z,31.88
2023-10-13T00:33:47.804Z,29.17
2023-10-13T00:33:59.557Z,24.00
2023-10-13T00:34:11.654Z,23.85
2023-10-13T00:34:23.434Z,26.52
2023-10-13T00:34:35.205Z,29.85
2023-10-13T00:34:47.031Z,37.47
2023-10-13T00:34:58.843Z,36.47
2023-10-13T00:35:10.711Z,27.63
2023-10-13T00:35:22.506Z,28.17
2023-10-13T00:35:34.297Z,30.05
2023-10-13T00:35:46.005Z,30.33
2023-10-13T00:35:57.752Z,30.13
2023-10-13T00:36:09.892Z,31.63
2023-10-13T00:36:21.652Z,33.72
2023-10-13T00:36:33.525Z,35.75
2023-10-13T00:36:45.301Z,30.95
2023-10-13T00:36:57.050Z,32.70
2023-10-13T00:37:08.802Z,35.58
2023-10-13T00:37:20.682Z,30.00
2023-10-13T00:37:32.409Z,27.30
2023-10-13T00:37:44.885Z,25.63
2023-10-13T00:37:57.305Z,28.38
2023-10-13T00:38:09.086Z,27.60
2023-10-13T00:38:20.902Z,28.60
2023-10-13T00:38:32.698Z,26.77
2023-10-13T00:38:44.474Z,29.88
2023-10-13T00:38:56.361Z,28.42
2023-10-13T00:39:08.194Z,27.05
2023-10-13T00:39:20.105Z,25.33
2023-10-13T00:39:32.104Z,22.40
2023-10-13T00:39:44.019Z,23.30
2023-10-13T00:39:55.760Z,23.60
2023-10-13T00:40:08.903Z,27.92
2023-10-13T00:40:21.192Z,28.17
2023-10-13T00:40:33.663Z,28.65
2023-10-13T00:40:46.274Z,28.13
2023-10-13T00:40:58.004Z,23.45
2023-10-13T00:41:09.799Z,24.65
2023-10-13T00:41:21.517Z,27.58
2023-10-13T00:41:33.266Z,30.08
2023-10-13T00:41:45.302Z,33.22
2023-10-13T00:41:57.032Z,30.80
2023-10-13T00:42:10.237Z,30.65
2023-10-13T00:42:21.983Z,24.95
2023-10-13T00:42:33.719Z,29.45
2023-10-13T00:42:45.586Z,34.33
2023-10-13T00:42:57.545Z,38.90
2023-10-13T00:43:09.654Z,28.48
2023-10-13T00:43:23.046Z,22.08
2023-10-13T00:43:46.023Z,24.77
2023-10-13T00:43:57.792Z,35.05
2023-10-13T00:44:09.567Z,34.85
2023-10-13T00:44:21.346Z,31.70
2023-10-13T00:44:33.203Z,33.40
2023-10-13T00:44:45.001Z,29.98
2023-10-13T00:44:56.941Z,31.85
2023-10-13T00:45:09.105Z,33.47
2023-10-13T00:45:21.275Z,32.90
2023-10-13T00:45:35.759Z,36.17
2023-10-13T00:45:49.605Z,31.98
2023-10-13T00:46:03.212Z,25.73
2023-10-13T00:46:15.272Z,26.25
2023-10-13T00:46:27.133Z,36.50
2023-10-13T00:46:40.222Z,36.55
2023-10-13T00:46:52.304Z,36.42
2023-10-13T00:47:04.801Z,31.92
2023-10-13T00:47:17.986Z,31.42
2023-10-13T00:47:29.790Z,31.52
2023-10-13T00:47:41.617Z,25.35
2023-10-13T00:47:54.693Z,25.30
2023-10-13T00:48:07.012Z,29.23
2023-10-13T00:48:18.855Z,29.10
2023-10-13T00:48:32.618Z,29.20
2023-10-13T00:48:45.008Z,32.80
2023-10-13T00:48:56.765Z,30.70
2023-10-13T00:49:08.622Z,29.45
2023-10-13T00:49:20.864Z,28.08
2023-10-13T00:49:33.321Z,30.42
2023-10-13T00:49:46.164Z,33.67
2023-10-13T00:49:58.001Z,34.20
2023-10-13T00:50:10.439Z,29.42
2023-10-13T00:50:22.229Z,26.27
2023-10-13T00:50:34.649Z,28.08
2023-10-13T00:50:46.382Z,31.50
2023-10-13T00:50:58.714Z,34.15
2023-10-13T00:51:12.660Z,30.92
2023-10-13T00:51:24.529Z,29.00
2023-10-13T00:51:36.851Z,28.60
2023-10-13T00:51:48.857Z,27.45
2023-10-13T00:52:00.650Z,30.85
2023-10-13T00:52:12.566Z,32.20
2023-10-13T00:52:25.463Z,32.85
2023-10-13T00:52:38.726Z,37.00
2023-10-13T00:52:51.058Z,35.38
2023-10-13T00:53:02.969Z,32.08
2023-10-13T00:53:14.686Z,30.85
2023-10-13T00:53:26.903Z,30.05
2023-10-13T00:53:39.690Z,27.23
2023-10-13T00:53:51.670Z,27.50
2023-10-13T00:54:05.399Z,27.85
2023-10-13T00:54:18.973Z,29.33
2023-10-13T00:54:31.586Z,28.23
2023-10-13T00:54:45.670Z,27.98
2023-10-13T00:54:58.016Z,28.75
2023-10-13T00:55:10.928Z,31.48
2023-10-13T00:55:24.038Z,33.40
2023-10-13T00:55:36.144Z,35.72
2023-10-13T00:55:47.917Z,35.38
2023-10-13T00:55:59.777Z,38.47
2023-10-13T00:56:11.960Z,37.90
2023-10-13T00:56:26.796Z,32.25
2023-10-13T00:56:40.209Z,27.17
2023-10-13T00:56:52.055Z,23.88
2023-10-13T00:57:04.853Z,25.00
2023-10-13T00:57:18.186Z,26.80
2023-10-13T00:57:30.068Z,30.33
2023-10-13T00:57:42.511Z,31.85
2023-10-13T00:57:56.746Z,31.27
2023-10-13T00:58:09.518Z,29.17
2023-10-13T00:58:22.637Z,29.58
2023-10-13T00:58:35.101Z,31.27
2023-10-13T00:58:47.310Z,26.88
2023-10-13T00:59:00.750Z,28.65
2023-10-13T00:59:13.481Z,32.80
2023-10-13T00:59:25.428Z,33.70
2023-10-13T00:59:37.573Z,30.35
2023-10-13T00:59:50.528Z,32.63
2023-10-13T01:00:02.476Z,30.08
2023-10-13T01:00:14.502Z,32.35
2023-10-13T01:00:26.252Z,34.67
2023-10-13T01:00:38.115Z,32.05
2023-10-13T01:00:50.974Z,27.33
2023-10-13T01:01:04.489Z,25.90
2023-10-13T01:01:16.360Z,26.30
2023-10-13T01:01:28.317Z,30.67
2023-10-13T01:01:40.273Z,31.33
2023-10-13T01:01:52.228Z,32.80
2023-10-13T01:02:04.091Z,29.60
2023-10-13T01:02:16.047Z,32.90
2023-10-13T01:02:28.080Z,34.15
2023-10-13T01:02:39.881Z,33.28
2023-10-13T01:02:54.081Z,31.02
2023-10-13T01:03:05.897Z,32.50
2023-10-13T01:03:17.621Z,30.83
2023-10-13T01:03:29.417Z,31.75
2023-10-13T01:03:41.190Z,32.00
2023-10-13T01:03:54.271Z,37.08
2023-10-13T01:04:06.361Z,36.80
2023-10-13T01:04:18.468Z,38.05
2023-10-13T01:04:30.406Z,31.90
2023-10-13T01:04:42.709Z,31.30
2023-10-13T01:04:54.731Z,28.63
2023-10-13T01:05:08.335Z,30.15
2023-10-13T01:05:20.340Z,30.63
2023-10-13T01:05:32.499Z,30.45
2023-10-13T01:05:44.408Z,31.60
2023-10-13T01:05:57.930Z,38.35
2023-10-13T01:06:10.165Z,34.22
2023-10-13T01:06:23.033Z,28.92
2023-10-13T01:06:35.010Z,30.58
2023-10-13T01:06:46.801Z,38.53
2023-10-13T01:06:58.566Z,40.40
2023-10-13T01:07:10.350Z,37.53
2023-10-13T01:07:22.209Z,29.25
2023-10-13T01:07:34.024Z,24.30
2023-10-13T01:07:45.804Z,27.40
2023-10-13T01:08:01.551Z,31.60
2023-10-13T01:08:13.230Z,29.70
2023-10-13T01:08:34.525Z,34.00
2023-10-13T01:08:47.611Z,41.58
2023-10-13T01:09:01.104Z,32.45
2023-10-13T01:09:12.945Z,30.00
2023-10-13T01:09:24.687Z,32.35
2023-10-13T01:09:41.755Z,35.17
2023-10-13T01:09:53.563Z,35.15
2023-10-13T01:10:10.333Z,38.85
2023-10-13T01:10:22.650Z,33.92
2023-10-13T01:10:34.448Z,25.00
2023-10-13T01:10:46.221Z,22.88
2023-10-13T01:10:57.993Z,24.42
2023-10-13T01:11:09.717Z,26.95
2023-10-13T01:11:21.501Z,26.05
2023-10-13T01:11:33.510Z,28.15
2023-10-13T01:11:46.958Z,27.00
2023-10-13T01:11:58.696Z,31.67
2023-10-13T01:12:10.411Z,34.75
2023-10-13T01:12:23.641Z,29.42
2023-10-13T01:12:35.373Z,34.40
2023-10-13T01:12:47.300Z,32.58
2023-10-13T01:12:59.442Z,34.08
2023-10-13T01:13:11.201Z,39.85
2023-10-13T01:13:22.902Z,38.08
2023-10-13T01:13:35.132Z,32.80
2023-10-13T01:13:47.172Z,36.35
2023-10-13T01:13:58.891Z,38.83
2023-10-13T01:14:10.715Z,29.73
2023-10-13T01:14:23.307Z,33.05
2023-10-13T01:14:35.279Z,36.17
2023-10-13T01:14:47.116Z,35.90
2023-10-13T01:14:59.033Z,35.83
2023-10-13T01:15:10.873Z,29.63
2023-10-13T01:15:22.590Z,28.83
2023-10-13T01:15:34.413Z,31.00
2023-10-13T01:15:46.257Z,33.65
2023-10-13T01:15:58.145Z,29.13
2023-10-13T01:16:09.956Z,27.75
2023-10-13T01:16:21.932Z,26.65
2023-10-13T01:16:33.812Z,24.88
2023-10-13T01:16:46.415Z,30.75
2023-10-13T01:16:58.244Z,33.88
2023-10-13T01:17:10.073Z,31.88
2023-10-13T01:17:21.864Z,24.70
2023-10-13T01:17:33.703Z,22.40
2023-10-13T01:17:46.946Z,25.30
2023-10-13T01:18:07.957Z,29.35
2023-10-13T01:18:19.744Z,31.08
2023-10-13T01:18:31.492Z,33.08
2023-10-13T01:18:43.184Z,35.42
2023-10-13T01:18:55.134Z,40.72
2023-10-13T01:19:07.169Z,39.17
2023-10-13T01:19:20.724Z,37.50
2023-10-13T01:19:37.321Z,30.05
2023-10-13T01:19:49.124Z,28.88
2023-10-13T01:20:00.909Z,26.10
2023-10-13T01:20:12.740Z,25.08
2023-10-13T01:20:24.664Z,25.92
2023-10-13T01:20:36.462Z,29.95
2023-10-13T01:20:48.325Z,28.67
2023-10-13T01:21:00.152Z,34.47
2023-10-13T01:21:11.941Z,36.47
2023-10-13T01:21:23.712Z,37.60
2023-10-13T01:21:35.445Z,32.13
2023-10-13T01:21:48.848Z,33.95
2023-10-13T01:22:00.853Z,30.52
2023-10-13T01:22:12.867Z,26.38
2023-10-13T01:22:24.712Z,26.88
2023-10-13T01:22:36.606Z,26.58
2023-10-13T01:22:48.522Z,25.80
2023-10-13T01:23:00.275Z,31.27
2023-10-13T01:23:14.019Z,32.42
2023-10-13T01:23:26.812Z,28.20
2023-10-13T01:23:38.588Z,30.75
2023-10-13T01:23:50.309Z,28.95
2023-10-13T01:24:02.545Z,30.00
2023-10-13T01:24:14.964Z,26.95
2023-10-13T01:24:27.312Z,24.92
2023-10-13T01:24:39.289Z,23.60
2023-10-13T01:24:51.016Z,23.87
2023-10-13T01:25:02.770Z,24.90
2023-10-13T01:25:15.093Z,31.15
2023-10-13T01:25:26.981Z,34.95
2023-10-13T01:25:38.790Z,34.97
2023-10-13T01:25:50.539Z,30.52
2023-10-13T01:26:02.276Z,28.98
2023-10-13T01:26:14.113Z,34.22
2023-10-13T01:26:25.833Z,41.85
2023-10-13T01:26:37.579Z,36.00
2023-10-13T01:26:49.353Z,32.83
2023-10-13T01:27:01.186Z,32.30
2023-10-13T01:27:13.274Z,34.38
2023-10-13T01:27:24.997Z,31.92
2023-10-13T01:27:37.728Z,31.60
2023-10-13T01:27:49.465Z,30.90
2023-10-13T01:28:01.160Z,27.00
2023-10-13T01:28:13.254Z,26.77
2023-10-13T01:28:25.053Z,28.02
2023-10-13T01:28:36.970Z,27.48
2023-10-13T01:28:49.067Z,29.17
2023-10-13T01:29:00.808Z,29.25
2023-10-13T01:29:12.575Z,26.10
2023-10-13T01:29:24.492Z,28.20
2023-10-13T01:29:36.231Z,27.58
2023-10-13T01:29:48.918Z,28.10
2023-10-13T01:30:00.675Z,23.83
2023-10-13T01:30:13.310Z,30.40
2023-10-13T01:30:25.016Z,30.65
2023-10-13T01:30:37.574Z,31.15
2023-10-13T01:30:49.426Z,24.88
2023-10-13T01:31:01.171Z,28.08
2023-10-13T01:31:13.307Z,28.02
2023-10-13T01:31:25.312Z,34.90
2023-10-13T01:31:37.284Z,38.90
2023-10-13T01:31:49.343Z,39.33
2023-10-13T01:32:01.183Z,37.60
2023-10-13T01:32:13.092Z,37.08
2023-10-13T01:32:25.218Z,39.50
2023-10-13T01:32:37.540Z,35.17
2023-10-13T01:32:49.584Z,34.95
2023-10-13T01:33:02.510Z,34.65
2023-10-13T01:33:14.407Z,26.60
2023-10-13T01:33:26.262Z,26.40
2023-10-13T01:33:38.182Z,29.15
2023-10-13T01:33:50.098Z,34.95
2023-10-13T01:34:02.024Z,35.38
2023-10-13T01:34:15.053Z,30.88
2023-10-13T01:34:26.848Z,29.30
2023-10-13T01:34:38.677Z,31.50
2023-10-13T01:34:50.748Z,29.15
2023-10-13T01:35:02.465Z,24.80
2023-10-13T01:35:14.252Z,22.98
2023-10-13T01:35:26.176Z,24.85
2023-10-13T01:35:38.663Z,27.30
2023-10-13T01:35:50.373Z,29.13
2023-10-13T01:36:02.173Z,32.00
2023-10-13T01:36:13.918Z,35.50
2023-10-13T01:36:27.211Z,29.27
2023-10-13T01:36:38.935Z,28.73
2023-10-13T01:36:51.366Z,26.90
2023-10-13T01:37:03.101Z,22.15
2023-10-13T01:37:15.492Z,20.42
2023-10-13T01:37:27.335Z,22.13
2023-10-13T01:37:39.154Z,31.10
2023-10-13T01:37:50.980Z,37.17
2023-10-13T01:38:02.795Z,29.38
2023-10-13T01:38:16.288Z,21.85
2023-10-13T01:38:28.037Z,24.02
2023-10-13T01:38:39.791Z,28.00
2023-10-13T01:38:51.618Z,29.75
2023-10-13T01:39:04.408Z,35.00
2023-10-13T01:39:16.095Z,31.60
2023-10-13T01:39:27.799Z,28.83
2023-10-13T01:39:39.565Z,24.60
2023-10-13T01:39:51.738Z,28.20
2023-10-13T01:40:03.662Z,31.40
2023-10-13T01:40:15.691Z,33.35
2023-10-13T01:40:27.523Z,36.05
2023-10-13T01:40:39.278Z,33.42
2023-10-13T01:40:50.980Z,34.03
2023-10-13T01:41:06.304Z,30.50
2023-10-13T01:41:19.657Z,33.83
2023-10-13T01:41:31.378Z,34.50
2023-10-13T01:41:43.204Z,31.55
2023-10-13T01:41:55.251Z,28.40
2023-10-13T01:42:07.013Z,30.45
2023-10-13T01:42:19.040Z,28.02
2023-10-13T01:42:31.800Z,30.27
2023-10-13T01:42:43.582Z,35.65
2023-10-13T01:42:55.554Z,33.22
2023-10-13T01:43:07.325Z,29.23
2023-10-13T01:43:19.800Z,27.10
2023-10-13T01:43:31.636Z,26.15
2023-10-13T01:43:43.482Z,26.05
2023-10-13T01:43:55.234Z,28.20
2023-10-13T01:44:07.220Z,31.92
2023-10-13T01:44:19.015Z,35.40
2023-10-13T01:44:30.728Z,30.85
2023-10-13T01:44:42.653Z,29.95
2023-10-13T01:44:54.423Z,25.88
2023-10-13T01:45:07.298Z,32.00
2023-10-13T01:45:21.921Z,29.92
2023-10-13T01:45:34.074Z,29.35
2023-10-13T01:45:45.863Z,29.35
2023-10-13T01:45:57.750Z,23.75
2023-10-13T01:46:10.857Z,28.63
2023-10-13T01:46:22.824Z,30.40
2023-10-13T01:46:34.711Z,32.25
2023-10-13T01:46:46.804Z,42.72
2023-10-13T01:46:58.610Z,43.45
2023-10-13T01:47:10.371Z,38.42
2023-10-13T01:47:22.133Z,31.27
2023-10-13T01:47:33.970Z,30.42
2023-10-13T01:47:47.694Z,27.10
2023-10-13T01:47:59.760Z,24.75
2023-10-13T01:48:11.579Z,28.20
2023-10-13T01:48:23.468Z,32.20
2023-10-13T01:48:35.189Z,35.22
2023-10-13T01:48:46.923Z,32.08
2023-10-13T01:48:58.724Z,25.55
2023-10-13T01:49:10.448Z,23.65
2023-10-13T01:49:29.666Z,22.30
2023-10-13T01:49:41.578Z,29.45
2023-10-13T01:49:53.342Z,31.25
2023-10-13T01:50:06.508Z,30.10
2023-10-13T01:50:18.940Z,33.05
2023-10-13T01:50:30.708Z,33.15
2023-10-13T01:50:42.545Z,34.47
2023-10-13T01:50:57.635Z,33.53
2023-10-13T01:51:09.506Z,30.80
2023-10-13T01:51:21.259Z,32.83
2023-10-13T01:51:33.053Z,29.95
2023-10-13T01:51:44.874Z,26.80
2023-10-13T01:51:56.592Z,25.15
2023-10-13T01:52:08.457Z,27.75
2023-10-13T01:52:20.188Z,26.73
2023-10-13T01:52:31.964Z,28.65
2023-10-13T01:52:43.699Z,29.08
2023-10-13T01:52:55.627Z,30.67
2023-10-13T01:53:07.441Z,22.95
2023-10-13T01:53:20.546Z,23.58
2023-10-13T01:53:32.462Z,26.17
2023-10-13T01:53:44.227Z,30.30
2023-10-13T01:53:56.055Z,33.92
2023-10-13T01:54:07.794Z,32.58
2023-10-13T01:54:19.565Z,30.75
2023-10-13T01:54:31.317Z,31.02
2023-10-13T01:54:43.066Z,30.20
2023-10-13T01:54:54.807Z,25.52
2023-10-13T01:55:07.268Z,25.67
2023-10-13T01:55:19.121Z,26.27
2023-10-13T01:55:31.034Z,29.05
2023-10-13T01:55:42.760Z,32.55
2023-10-13T01:55:54.586Z,29.42
2023-10-13T01:56:07.241Z,26.77
2023-10-13T01:56:18.962Z,26.80
2023-10-13T01:56:30.754Z,26.15
2023-10-13T01:56:42.789Z,27.17
2023-10-13T01:56:54.552Z,28.27
2023-10-13T01:57:06.356Z,30.48
2023-10-13T01:57:18.249Z,30.23
2023-10-13T01:57:29.934Z,30.33
2023-10-13T01:57:41.757Z,29.13
2023-10-13T01:57:53.585Z,25.92
2023-10-13T01:58:06.588Z,26.33
2023-10-13T01:58:20.237Z,32.72
2023-10-13T01:58:33.098Z,32.47
2023-10-13T01:58:44.913Z,29.20
2023-10-13T01:58:57.253Z,30.30
2023-10-13T01:59:09.122Z,29.73
2023-10-13T01:59:21.197Z,24.65
2023-10-13T01:59:33.153Z,25.60
2023-10-13T01:59:45.096Z,30.65
2023-10-13T01:59:57.010Z,29.73
2023-10-13T02:00:10.097Z,27.10
2023-10-13T02:00:23.969Z,23.30
2023-10-13T02:00:35.748Z,24.98
2023-10-13T02:00:47.727Z,31.38
2023-10-13T02:00:59.529Z,32.60
2023-10-13T02:01:11.455Z,28.77
2023-10-13T02:01:23.446Z,28.95
2023-10-13T02:01:35.393Z,27.40
2023-10-13T02:01:47.310Z,30.10
2023-10-13T02:01:59.347Z,28.15
2023-10-13T02:02:11.363Z,28.48
2023-10-13T02:02:23.334Z,26.05
2023-10-13T02:02:35.273Z,24.65
2023-10-13T02:02:47.283Z,20.67
2023-10-13T02:02:59.098Z,23.75
2023-10-13T02:03:12.791Z,26.40
2023-10-13T02:03:24.641Z,32.55
2023-10-13T02:03:36.822Z,29.55
2023-10-13T02:03:48.598Z,24.55
2023-10-13T02:04:00.454Z,27.85
2023-10-13T02:04:12.393Z,30.00
2023-10-13T02:04:24.746Z,28.70
2023-10-13T02:04:36.526Z,24.88
2023-10-13T02:04:48.451Z,23.88
2023-10-13T02:05:00.229Z,26.70
2023-10-13T02:05:12.035Z,27.25
2023-10-13T02:05:23.920Z,29.15
2023-10-13T02:05:36.496Z,25.10
2023-10-13T02:05:49.492Z,22.92
2023-10-13T02:06:01.326Z,28.13
2023-10-13T02:06:13.246Z,30.00
2023-10-13T02:06:25.140Z,31.15
2023-10-13T02:06:38.287Z,31.98
2023-10-13T02:06:50.060Z,30.00
2023-10-13T02:07:01.814Z,24.33
2023-10-13T02:07:13.562Z,23.35
2023-10-13T02:07:25.478Z,24.77
2023-10-13T02:07:37.771Z,26.92
2023-10-13T02:07:49.573Z,26.55
2023-10-13T02:08:01.329Z,26.05
2023-10-13T02:08:13.050Z,27.10
2023-10-13T02:08:26.426Z,27.27
2023-10-13T02:08:38.894Z,28.13
2023-10-13T02:08:51.044Z,27.15
2023-10-13T02:09:04.685Z,30.00
2023-10-13T02:09:17.359Z,31.02
2023-10-13T02:09:29.235Z,33.50
2023-10-13T02:09:41.011Z,34.75
2023-10-13T02:09:52.789Z,29.52
2023-10-13T02:10:05.190Z,26.35
2023-10-13T02:10:16.954Z,27.40
2023-10-13T02:10:28.786Z,26.80
2023-10-13T02:10:40.586Z,27.77
2023-10-13T02:10:53.164Z,28.13
2023-10-13T02:11:04.923Z,25.02
2023-10-13T02:11:16.687Z,22.20
2023-10-13T02:11:28.457Z,27.27
2023-10-13T02:11:40.864Z,35.40
2023-10-13T02:11:53.614Z,35.72
2023-10-13T02:12:05.817Z,33.53
2023-10-13T02:12:17.593Z,38.30
2023-10-13T02:12:29.680Z,37.53
2023-10-13T02:12:41.445Z,28.60
2023-10-13T02:12:53.170Z,25.75
2023-10-13T02:13:04.901Z,24.40
2023-10-13T02:13:17.660Z,26.17
2023-10-13T02:13:29.598Z,27.85
2023-10-13T02:13:41.453Z,28.33
2023-10-13T02:13:53.334Z,32.58
2023-10-13T02:14:05.200Z,28.90
2023-10-13T02:14:16.952Z,26.30
2023-10-13T02:14:28.805Z,25.48
2023-10-13T02:14:40.598Z,28.60
2023-10-13T02:14:52.310Z,30.52
2023-10-13T02:15:04.251Z,33.38
2023-10-13T02:15:15.943Z,31.25
2023-10-13T02:15:27.890Z,29.05
2023-10-13T02:15:39.780Z,29.25
2023-10-13T02:15:55.197Z,25.67
2023-10-13T02:16:07.025Z,25.58
2023-10-13T02:16:18.821Z,25.05
2023-10-13T02:16:30.644Z,22.73
2023-10-13T02:16:43.131Z,20.63
2023-10-13T02:16:54.908Z,30.88
2023-10-13T02:17:06.680Z,35.10
2023-10-13T02:17:18.542Z,28.75
2023-10-13T02:17:30.501Z,28.38
2023-10-13T02:17:42.292Z,25.73
2023-10-13T02:17:54.849Z,28.08
2023-10-13T02:18:06.722Z,24.65
2023-10-13T02:18:19.966Z,26.83
2023-10-13T02:18:31.757Z,27.95
2023-10-13T02:18:43.454Z,24.65
2023-10-13T02:18:55.247Z,24.13
2023-10-13T02:19:07.035Z,25.23
2023-10-13T02:19:18.873Z,23.63
2023-10-13T02:19:30.777Z,22.60
2023-10-13T02:19:43.087Z,23.80
2023-10-13T02:19:54.946Z,24.52
2023-10-13T02:20:08.069Z,22.65
2023-10-13T02:20:19.900Z,26.50
2023-10-13T02:20:31.757Z,28.60
2023-10-13T02:20:43.650Z,28.17
2023-10-13T02:20:55.721Z,27.65
2023-10-13T02:21:07.455Z,29.35
2023-10-13T02:21:19.251Z,32.33
2023-10-13T02:21:31.882Z,28.13
2023-10-13T02:21:43.616Z,25.73
2023-10-13T02:21:55.396Z,26.05
2023-10-13T02:22:07.421Z,30.05
2023-10-13T02:22:19.401Z,31.85
2023-10-13T02:22:31.355Z,28.70
2023-10-13T02:22:43.453Z,24.15
2023-10-13T02:22:55.208Z,26.55
2023-10-13T02:23:06.954Z,28.58
2023-10-13T02:23:18.687Z,25.95
2023-10-13T02:23:32.101Z,25.33
2023-10-13T02:23:43.876Z,36.15
2023-10-13T02:23:55.897Z,36.90
2023-10-13T02:24:08.273Z,29.38
2023-10-13T02:24:20.052Z,31.50
2023-10-13T02:24:31.854Z,32.72
2023-10-13T02:24:43.579Z,32.67
2023-10-13T02:24:55.558Z,27.38
2023-10-13T02:25:08.291Z,27.63
2023-10-13T02:25:20.804Z,26.73
2023-10-13T02:25:36.227Z,27.50
2023-10-13T02:25:48.191Z,27.08
2023-10-13T02:26:00.820Z,28.80
2023-10-13T02:26:14.071Z,24.80
2023-10-13T02:26:25.808Z,26.33
2023-10-13T02:26:37.680Z,27.00
2023-10-13T02:26:49.429Z,28.98
2023-10-13T02:27:01.153Z,27.42
2023-10-13T02:27:13.010Z,25.63
2023-10-13T02:27:24.767Z,32.03
2023-10-13T02:27:36.568Z,41.10
2023-10-13T02:27:48.316Z,35.88
2023-10-13T02:28:00.099Z,27.10
2023-10-13T02:28:11.886Z,29.08
2023-10-13T02:28:23.599Z,26.95
2023-10-13T02:28:35.676Z,23.58
2023-10-13T02:28:47.435Z,23.95
2023-10-13T02:29:00.548Z,31.58
2023-10-13T02:29:12.448Z,31.42
2023-10-13T02:29:24.204Z,29.85
2023-10-13T02:29:36.336Z,28.85
2023-10-13T02:29:50.477Z,31.30
2023-10-13T02:30:02.815Z,31.17
2023-10-13T02:30:14.591Z,32.13
2023-10-13T02:30:26.370Z,28.02
2023-10-13T02:30:41.711Z,27.52
2023-10-13T02:30:53.581Z,28.20
2023-10-13T02:31:05.748Z,29.95
2023-10-13T02:31:17.656Z,27.95
2023-10-13T02:31:29.649Z,27.55
2023-10-13T02:31:43.593Z,28.40
2023-10-13T02:31:55.644Z,30.02
2023-10-13T02:32:07.751Z,24.80
2023-10-13T02:32:19.491Z,27.27
2023-10-13T02:32:31.350Z,30.27
2023-10-13T02:32:43.261Z,35.65
2023-10-13T02:32:55.026Z,30.55
2023-10-13T02:33:07.422Z,27.25
2023-10-13T02:33:19.163Z,29.27
2023-10-13T02:33:31.596Z,31.83
2023-10-13T02:33:43.463Z,29.15
2023-10-13T02:33:55.263Z,31.08
2023-10-13T02:34:07.468Z,33.63
2023-10-13T02:34:19.275Z,35.08
2023-10-13T02:34:31.048Z,29.27
2023-10-13T02:34:43.356Z,30.27
2023-10-13T02:34:55.158Z,25.13
2023-10-13T02:35:07.419Z,24.27
2023-10-13T02:35:19.171Z,26.88
2023-10-13T02:35:30.858Z,26.95
2023-10-13T02:35:42.896Z,23.58
2023-10-13T02:35:54.744Z,23.48
2023-10-13T02:36:07.028Z,25.67
2023-10-13T02:36:18.790Z,40.85
2023-10-13T02:36:30.553Z,44.38
2023-10-13T02:36:42.330Z,42.42
2023-10-13T02:36:54.037Z,38.90
2023-10-13T02:37:05.881Z,30.08
2023-10-13T02:37:17.669Z,23.88
2023-10-13T02:37:29.561Z,31.58
2023-10-13T02:37:41.303Z,34.42